Flight Track Log - Related Links

Times and Time Zones

All times are in EDT time to prevent confusion due to time zone crossing. See the AMF708 flight status page for this flight to view local times or setup timezone preferences in your user account.

Time Position Orientation Groundspeed Altitude Reporting Facility
EDT Latitude Longitude Course Direction KTS MPH feet Rate Location/Type
Wed 01:07:59 AM 28.4000 -81.3167 127° Southeast 148 170 1,900  Level Orlando TRACON
Wed 01:08:59 AM 28.3667 -81.2667 127° Southeast 164 189 4,000 1,950 Climbing Orlando TRACON
Wed 01:09:59 AM 28.3333 -81.2333 139° Southeast 183 211 5,800 1,850 Climbing Orlando TRACON
Wed 01:10:59 AM 28.2833 -81.2167 164° South 181 208 7,700 1,714 Climbing Orlando TRACON
Wed 01:12:05 AM 28.2333 -81.2000 164° South 187 215 9,400 1,524 Climbing Orlando TRACON
Wed 01:13:05 AM 28.1833 -81.1667 150° Southeast 193 222 10,900 1,368 Climbing Orlando TRACON
Wed 01:13:59 AM 28.1333 -81.1500 164° South 201 231 12,000 1,211 Climbing Orlando TRACON
Wed 01:14:59 AM 28.0833 -81.1333 164° South 204 235 13,200 1,165 Climbing Orlando TRACON
Wed 01:15:42 AM 28.0369 -81.1239 170° South 201 231 14,000 1,049 Climbing Miami Center
Wed 01:16:42 AM 27.9881 -81.0892 148° Southeast 206 237 15,000 500 Climbing Miami Center
Wed 01:17:42 AM 27.9372 -81.0425 141° Southeast 223 257 15,000  Level Miami Center
Wed 01:18:42 AM 27.8803 -80.9911 141° Southeast 251 289 15,000  Level Miami Center
Wed 01:19:42 AM 27.8253 -80.9397 140° Southeast 275 316 15,000  Level Miami Center
Wed 01:20:44 AM 27.7603 -80.8742 138° Southeast 280 322 15,000  Level Miami Center
Wed 01:21:44 AM 27.7075 -80.8253 141° Southeast 280 322 15,000  Level Miami Center
Wed 01:22:42 AM 27.6442 -80.7739 144° Southeast 280 322 15,000  Level Miami Center
Wed 01:23:42 AM 27.5683 -80.7244 150° Southeast 280 322 15,000  Level Miami Center
Wed 01:24:42 AM 27.5025 -80.6778 148° Southeast 280 322 15,000  Level Miami Center
Wed 01:25:44 AM 27.4350 -80.6336 150° Southeast 287 330 15,000  Level Miami Center
Wed 01:26:45 AM 27.3650 -80.5892 151° Southeast 287 330 15,000  Level Miami Center
Wed 01:27:42 AM 27.3011 -80.5614 159° South 280 322 15,000  Level Miami Center
Wed 01:28:43 AM 27.2183 -80.5261 159° South 280 322 15,000  Level Miami Center
Wed 01:29:42 AM 27.1442 -80.4956 160° South 286 329 15,000  Level Miami Center
Wed 01:30:42 AM 27.0697 -80.4631 159° South 286 329 15,000 -98 Level Miami Center
Wed 01:31:44 AM 27.0036 -80.4353 159° South 281 323 14,800 -650 Descending Miami Center
Wed 01:32:42 AM 26.9292 -80.4003 157° South 288 331 13,700 -1,373 Descending Miami Center
Wed 01:33:42 AM 26.8403 -80.3653 161° South 306 352 12,100 -1,300 Descending Miami Center
Wed 01:34:42 AM 26.7639 -80.3303 158° South 318 366 11,100 -1,438 Descending Miami Center
Wed 01:35:43 AM 26.6922 -80.2700 143° Southeast 304 350 9,200 -1,891 Descending Miami Center
Wed 01:36:14 AM 26.6553 -80.2364 141° Southeast 299 344 8,200 -1,745 Descending Miami Center
Wed 01:37:33 AM 26.5714 -80.1644 143° Southeast 282 325 6,000 -943 Descending Miami Center
Wed 01:38:34 AM 26.5097 -80.1256 151° Southeast 256 295 6,000  Level Miami Center
Wed 01:39:36 AM 26.4392 -80.1050 165° South 262 302 6,000 50 Level Miami Center
Wed 01:40:35 AM 26.3664 -80.0892 169° South 261 300 6,100 -202 Climbing Miami Center
Wed 01:41:35 AM 26.2956 -80.0825 175° South 262 302 5,600 -843 Descending Miami Center
Wed 01:42:36 AM 26.2247 -80.0736 174° South 256 295 4,400 -1,125 Descending Miami Center
Wed 01:43:43 AM 26.1514 -80.0739 180° South 249 287 3,200 -645 Descending Miami Center
Wed 01:44:37 AM 26.0883 -80.0931 195° South 236 272 3,100 -52 Descending Miami Center
Wed 01:45:38 AM 26.0294 -80.1192 202° Southwest 237 273 3,100 -248 Level Miami Center
Wed 01:46:38 AM 25.9967 -80.1831 240° Southwest 236 272 2,600 -496 Descending Miami Center
Wed 01:47:39 AM 25.9722 -80.2425 245° Southwest 202 232 2,100 -537 Descending Miami Center
Wed 01:48:41 AM 25.9606 -80.3000 257° West 189 217 1,500 -554 Descending Miami Center
Wed 01:49:49 AM 25.9347 -80.3292 225° Southwest 125 144 900 -529 Descending Miami Center
Wed 01:51:00 AM 25.9074 -80.2782 121° Southeast  Level Estimated
Wed 01:58:00 AM 25.9074 -80.2782 211° Southwest  Level Estimated
Wed 01:59:00 AM 25.9074 -80.2782 211° Southwest  Level Estimated

Login

Don't have an account? Register now (free) for customized features, flight alerts, and more!